RYR8508 LICR-LIRP
Flight info
| Callsign | RYR8508 |
|---|---|
| Flight time | N/A |
| Altitude | 19000 |
| Route | PAZZE L869 PIGER/N0426F320 DCT DIRED DCT TAGEL DCT GILIO/N0339F180 M729 ELB |
| Aircraft | B738/M-SDE3FGILRWY/SB1 |
Departure
| Time | 2026-04-26 18:12 |
|---|---|
| Airport | Reggio Calabria Airport (LICR) |
Arrival
| Time | N/A |
|---|---|
| Airport | Pisa International Airport (LIRP) |
| Time | Latitude | Longitude | Altitude | Speed | Heading |
|---|---|---|---|---|---|
| 2026-04-26 17:51 | 38.07358 | 15.65293 | 78 ft | 0 kts | 118° |
| 2026-04-26 18:09 | 38.07344 | 15.65296 | 77 ft | 4 kts | 204° |
| 2026-04-26 18:09 | 38.07336 | 15.65237 | 75 ft | 7 kts | 264° |
| 2026-04-26 18:09 | 38.07315 | 15.65164 | 72 ft | 11 kts | 242° |
| 2026-04-26 18:09 | 38.07252 | 15.65079 | 67 ft | 15 kts | 189° |
| 2026-04-26 18:10 | 38.07143 | 15.65138 | 62 ft | 20 kts | 151° |
| 2026-04-26 18:10 | 38.07009 | 15.65225 | 58 ft | 22 kts | 152° |
| 2026-04-26 18:10 | 38.06847 | 15.65333 | 54 ft | 28 kts | 153° |
| 2026-04-26 18:10 | 38.06673 | 15.65449 | 55 ft | 26 kts | 153° |
| 2026-04-26 18:11 | 38.06560 | 15.65523 | 58 ft | 15 kts | 146° |
| 2026-04-26 18:11 | 38.06498 | 15.65605 | 62 ft | 9 kts | 130° |
| 2026-04-26 18:11 | 38.06456 | 15.65639 | 65 ft | 6 kts | 181° |
| 2026-04-26 18:11 | 38.06455 | 15.65587 | 61 ft | 11 kts | 335° |
| 2026-04-26 18:12 | 38.06549 | 15.65527 | 58 ft | 32 kts | 333° |
| 2026-04-26 18:12 | 38.07010 | 15.65228 | 58 ft | 113 kts | 332° |
| 2026-04-26 18:12 | 38.07911 | 15.64640 | 219 ft | 165 kts | 335° |
| 2026-04-26 18:12 | 38.08897 | 15.64017 | 1149 ft | 162 kts | 336° |
| 2026-04-26 18:13 | 38.09946 | 15.63392 | 1861 ft | 170 kts | 337° |
| 2026-04-26 18:13 | 38.10997 | 15.62824 | 2144 ft | 172 kts | 339° |
| 2026-04-26 18:13 | 38.12152 | 15.62235 | 2571 ft | 186 kts | 339° |
| 2026-04-26 18:13 | 38.12982 | 15.61807 | 2862 ft | 197 kts | 339° |
| 2026-04-26 18:14 | 38.14777 | 15.61047 | 3577 ft | 210 kts | 353° |
| 2026-04-26 18:14 | 38.16277 | 15.60820 | 4115 ft | 222 kts | 354° |
| 2026-04-26 18:14 | 38.17849 | 15.60545 | 4595 ft | 238 kts | 352° |
| 2026-04-26 18:14 | 38.19534 | 15.60199 | 5172 ft | 250 kts | 351° |
| 2026-04-26 18:15 | 38.21282 | 15.59826 | 5696 ft | 264 kts | 351° |
| 2026-04-26 18:15 | 38.23124 | 15.59435 | 6414 ft | 270 kts | 351° |
| 2026-04-26 18:15 | 38.24979 | 15.59043 | 7140 ft | 275 kts | 351° |
| 2026-04-26 18:15 | 38.26885 | 15.58644 | 7900 ft | 279 kts | 351° |
| 2026-04-26 18:16 | 38.28791 | 15.58244 | 8656 ft | 282 kts | 351° |
| 2026-04-26 18:16 | 38.32675 | 15.57430 | 10131 ft | 288 kts | 351° |
| 2026-04-26 18:16 | 38.34679 | 15.57010 | 10688 ft | 298 kts | 351° |
| 2026-04-26 18:17 | 38.36767 | 15.56572 | 11080 ft | 313 kts | 351° |
| 2026-04-26 18:17 | 38.38990 | 15.56105 | 11470 ft | 329 kts | 351° |
| 2026-04-26 18:17 | 38.41271 | 15.55626 | 11988 ft | 339 kts | 351° |
| 2026-04-26 18:17 | 38.43610 | 15.55134 | 12641 ft | 345 kts | 351° |
| 2026-04-26 18:18 | 38.46009 | 15.54629 | 13316 ft | 350 kts | 350° |
| 2026-04-26 18:18 | 38.48405 | 15.54125 | 14045 ft | 354 kts | 350° |
| 2026-04-26 18:18 | 38.50847 | 15.53610 | 14819 ft | 357 kts | 350° |
| 2026-04-26 18:18 | 38.53286 | 15.53095 | 15567 ft | 360 kts | 350° |
| 2026-04-26 18:19 | 38.55766 | 15.52554 | 16299 ft | 363 kts | 348° |
| 2026-04-26 18:19 | 38.58190 | 15.51653 | 16994 ft | 366 kts | 336° |
| 2026-04-26 18:19 | 38.60308 | 15.49918 | 17660 ft | 368 kts | 317° |
| 2026-04-26 18:19 | 38.61920 | 15.47371 | 18287 ft | 371 kts | 300° |
| 2026-04-26 18:20 | 38.62942 | 15.44359 | 18989 ft | 373 kts | 288° |
| 2026-04-26 18:20 | 38.63563 | 15.41159 | 19605 ft | 376 kts | 282° |
| 2026-04-26 18:20 | 38.64058 | 15.37853 | 20234 ft | 379 kts | 281° |
| 2026-04-26 18:20 | 38.64367 | 15.35655 | 20629 ft | 382 kts | 281° |
| 2026-04-26 18:21 | 38.65150 | 15.31213 | 21421 ft | 386 kts | 288° |
| 2026-04-26 18:21 | 38.66214 | 15.28062 | 22012 ft | 388 kts | 299° |
| 2026-04-26 18:21 | 38.67713 | 15.25234 | 22587 ft | 391 kts | 309° |
| 2026-04-26 18:21 | 38.69635 | 15.22762 | 23129 ft | 394 kts | 320° |
| 2026-04-26 18:22 | 38.71888 | 15.20777 | 23616 ft | 398 kts | 330° |
| 2026-04-26 18:22 | 38.74430 | 15.19295 | 24186 ft | 401 kts | 338° |
| 2026-04-26 18:22 | 38.77033 | 15.18092 | 24691 ft | 404 kts | 340° |
| 2026-04-26 18:22 | 38.79682 | 15.16840 | 25231 ft | 406 kts | 338° |
| 2026-04-26 18:23 | 38.82303 | 15.15424 | 25681 ft | 409 kts | 335° |
| 2026-04-26 18:23 | 38.84848 | 15.13817 | 26243 ft | 410 kts | 332° |
| 2026-04-26 18:23 | 38.87326 | 15.12056 | 26691 ft | 413 kts | 329° |
| 2026-04-26 18:23 | 38.89784 | 15.10156 | 27174 ft | 415 kts | 328° |
| 2026-04-26 18:24 | 38.92245 | 15.08147 | 27559 ft | 419 kts | 327° |
| 2026-04-26 18:24 | 38.94690 | 15.06081 | 28007 ft | 422 kts | 326° |
| 2026-04-26 18:24 | 38.97131 | 15.03979 | 28426 ft | 424 kts | 326° |
| 2026-04-26 18:24 | 38.99588 | 15.01842 | 28856 ft | 427 kts | 326° |
| 2026-04-26 18:25 | 39.02043 | 14.99695 | 29302 ft | 429 kts | 325° |
| 2026-04-26 18:25 | 39.04534 | 14.97510 | 29681 ft | 432 kts | 325° |
| 2026-04-26 18:25 | 39.07052 | 14.95298 | 30096 ft | 434 kts | 325° |
| 2026-04-26 18:25 | 39.09545 | 14.93107 | 30485 ft | 436 kts | 325° |
| 2026-04-26 18:26 | 39.12032 | 14.90920 | 31150 ft | 430 kts | 325° |
| 2026-04-26 18:26 | 39.14485 | 14.88762 | 31719 ft | 427 kts | 325° |
| 2026-04-26 18:26 | 39.16891 | 14.86644 | 32245 ft | 424 kts | 325° |
| 2026-04-26 18:26 | 39.19317 | 14.84508 | 32694 ft | 423 kts | 325° |
| 2026-04-26 18:27 | 39.21747 | 14.82367 | 33145 ft | 421 kts | 325° |
| 2026-04-26 18:27 | 39.24167 | 14.80233 | 33603 ft | 419 kts | 324° |
| 2026-04-26 18:27 | 39.26546 | 14.78134 | 34074 ft | 417 kts | 324° |
| 2026-04-26 18:27 | 39.28925 | 14.76032 | 34485 ft | 416 kts | 324° |
| 2026-04-26 18:28 | 39.31307 | 14.73925 | 34892 ft | 415 kts | 324° |
| 2026-04-26 18:28 | 39.33701 | 14.71807 | 35249 ft | 415 kts | 324° |
| 2026-04-26 18:28 | 39.36050 | 14.69725 | 35586 ft | 415 kts | 324° |
| 2026-04-26 18:28 | 39.38453 | 14.67595 | 35908 ft | 415 kts | 324° |
| 2026-04-26 18:29 | 39.40817 | 14.65498 | 36142 ft | 417 kts | 324° |
| 2026-04-26 18:29 | 39.43216 | 14.63368 | 36140 ft | 419 kts | 324° |
| 2026-04-26 18:29 | 39.47964 | 14.59150 | 36140 ft | 414 kts | 324° |
| 2026-04-26 18:30 | 39.52708 | 14.54915 | 36142 ft | 414 kts | 323° |
| 2026-04-26 18:30 | 39.57115 | 14.50138 | 36145 ft | 413 kts | 314° |
| 2026-04-26 18:31 | 39.60923 | 14.44550 | 36134 ft | 414 kts | 309° |
| 2026-04-26 18:31 | 39.64504 | 14.38738 | 36137 ft | 413 kts | 308° |
| 2026-04-26 18:32 | 39.68063 | 14.32890 | 36138 ft | 414 kts | 308° |
| 2026-04-26 18:32 | 39.71633 | 14.27046 | 36135 ft | 414 kts | 308° |
| 2026-04-26 18:33 | 39.75205 | 14.21219 | 36128 ft | 415 kts | 308° |
| 2026-04-26 18:33 | 39.78789 | 14.15375 | 36130 ft | 415 kts | 308° |
| 2026-04-26 18:34 | 39.82389 | 14.09501 | 36133 ft | 415 kts | 308° |
| 2026-04-26 18:34 | 39.85972 | 14.03646 | 36132 ft | 416 kts | 308° |
| 2026-04-26 18:35 | 39.89567 | 13.97759 | 36140 ft | 417 kts | 308° |
| 2026-04-26 18:35 | 39.93173 | 13.91844 | 36131 ft | 418 kts | 308° |
| 2026-04-26 18:36 | 39.96761 | 13.85946 | 36134 ft | 418 kts | 308° |
| 2026-04-26 18:36 | 40.00370 | 13.80003 | 36135 ft | 418 kts | 308° |
| 2026-04-26 18:37 | 40.03960 | 13.74080 | 36130 ft | 417 kts | 308° |
| 2026-04-26 18:37 | 40.07556 | 13.68136 | 36133 ft | 418 kts | 308° |
| 2026-04-26 18:38 | 40.11149 | 13.62186 | 36136 ft | 418 kts | 308° |
| 2026-04-26 18:38 | 40.14728 | 13.56248 | 36131 ft | 417 kts | 308° |
| 2026-04-26 18:39 | 40.18297 | 13.50316 | 36134 ft | 417 kts | 308° |
| 2026-04-26 18:39 | 40.21869 | 13.44366 | 36139 ft | 417 kts | 308° |
| 2026-04-26 18:40 | 40.25425 | 13.38431 | 36128 ft | 416 kts | 308° |
| 2026-04-26 18:40 | 40.29039 | 13.32510 | 36131 ft | 417 kts | 310° |
| 2026-04-26 18:41 | 40.33147 | 13.27186 | 36136 ft | 418 kts | 318° |
| 2026-04-26 18:41 | 40.37562 | 13.22281 | 36133 ft | 417 kts | 320° |
| 2026-04-26 18:42 | 40.42057 | 13.17415 | 36138 ft | 417 kts | 320° |
| 2026-04-26 18:42 | 40.46507 | 13.12555 | 36132 ft | 417 kts | 319° |
| 2026-04-26 18:43 | 40.50925 | 13.07679 | 36132 ft | 417 kts | 319° |
| 2026-04-26 18:43 | 40.55339 | 13.02774 | 36133 ft | 417 kts | 319° |
| 2026-04-26 18:44 | 40.59759 | 12.97844 | 36129 ft | 416 kts | 319° |
| 2026-04-26 18:44 | 40.64153 | 12.92929 | 36134 ft | 417 kts | 319° |
| 2026-04-26 18:45 | 40.68557 | 12.87995 | 36135 ft | 416 kts | 319° |
| 2026-04-26 18:45 | 40.72953 | 12.83060 | 36134 ft | 416 kts | 319° |
| 2026-04-26 18:46 | 40.77369 | 12.78092 | 36134 ft | 416 kts | 319° |
| 2026-04-26 18:46 | 40.81765 | 12.73139 | 36136 ft | 416 kts | 319° |
| 2026-04-26 18:47 | 40.86144 | 12.68197 | 36134 ft | 415 kts | 319° |
| 2026-04-26 18:47 | 40.90525 | 12.63244 | 36131 ft | 416 kts | 319° |
| 2026-04-26 18:48 | 40.94889 | 12.58301 | 35972 ft | 413 kts | 319° |
| 2026-04-26 18:48 | 40.97078 | 12.55818 | 36121 ft | 415 kts | 319° |
| 2026-04-26 18:48 | 40.99271 | 12.53328 | 35937 ft | 421 kts | 319° |
| 2026-04-26 18:49 | 41.01479 | 12.50820 | 36117 ft | 414 kts | 319° |
| 2026-04-26 18:49 | 41.03653 | 12.48347 | 36127 ft | 418 kts | 319° |
| 2026-04-26 18:49 | 41.05869 | 12.45825 | 36451 ft | 418 kts | 319° |
| 2026-04-26 18:49 | 41.08060 | 12.43329 | 36141 ft | 418 kts | 319° |
| 2026-04-26 18:50 | 41.12402 | 12.38388 | 36134 ft | 412 kts | 319° |
| 2026-04-26 18:50 | 41.16758 | 12.33405 | 36055 ft | 412 kts | 318° |
| 2026-04-26 18:51 | 41.21124 | 12.28401 | 36130 ft | 418 kts | 318° |
| 2026-04-26 18:51 | 41.25474 | 12.23406 | 36130 ft | 415 kts | 318° |
| 2026-04-26 18:52 | 41.29129 | 12.19206 | 36127 ft | 416 kts | 318° |
| 2026-04-26 18:52 | 41.34220 | 12.13343 | 36125 ft | 415 kts | 318° |
| 2026-04-26 18:53 | 41.38560 | 12.08338 | 36126 ft | 415 kts | 318° |
| 2026-04-26 18:53 | 41.42896 | 12.03328 | 36128 ft | 415 kts | 318° |
| 2026-04-26 18:54 | 41.47246 | 11.98291 | 36127 ft | 415 kts | 318° |
| 2026-04-26 18:54 | 41.51576 | 11.93268 | 36128 ft | 415 kts | 318° |
| 2026-04-26 18:55 | 41.55938 | 11.88199 | 36131 ft | 415 kts | 318° |
| 2026-04-26 18:55 | 41.60292 | 11.83130 | 36135 ft | 416 kts | 318° |
| 2026-04-26 18:56 | 41.64608 | 11.78096 | 36126 ft | 414 kts | 318° |
| 2026-04-26 18:56 | 41.68959 | 11.73011 | 36129 ft | 415 kts | 318° |
| 2026-04-26 18:57 | 41.72569 | 11.68785 | 36126 ft | 414 kts | 318° |
| 2026-04-26 18:57 | 41.77600 | 11.62885 | 36130 ft | 415 kts | 318° |
| 2026-04-26 18:58 | 41.81935 | 11.57791 | 36127 ft | 414 kts | 317° |
| 2026-04-26 18:58 | 41.86244 | 11.52720 | 36123 ft | 414 kts | 318° |
| 2026-04-26 18:59 | 41.90556 | 11.47634 | 36124 ft | 414 kts | 318° |
| 2026-04-26 18:59 | 41.94844 | 11.42566 | 36124 ft | 414 kts | 318° |
| 2026-04-26 19:00 | 41.99152 | 11.37466 | 36122 ft | 414 kts | 318° |
| 2026-04-26 19:00 | 42.03528 | 11.32276 | 36119 ft | 424 kts | 317° |
| 2026-04-26 19:01 | 42.07980 | 11.26983 | 36116 ft | 436 kts | 317° |
| 2026-04-26 19:01 | 42.12575 | 11.21511 | 36116 ft | 443 kts | 317° |
| 2026-04-26 19:02 | 42.17144 | 11.16063 | 36115 ft | 435 kts | 317° |
| 2026-04-26 19:02 | 42.19363 | 11.13416 | 36126 ft | 419 kts | 317° |
| 2026-04-26 19:02 | 42.20814 | 11.11683 | 36122 ft | 410 kts | 317° |
| 2026-04-26 19:03 | 42.25753 | 11.05769 | 35839 ft | 412 kts | 317° |
| 2026-04-26 19:03 | 42.27882 | 11.03213 | 35433 ft | 409 kts | 317° |
| 2026-04-26 19:03 | 42.29750 | 11.00968 | 35065 ft | 406 kts | 317° |
| 2026-04-26 19:04 | 42.31845 | 10.98451 | 34583 ft | 405 kts | 318° |
| 2026-04-26 19:04 | 42.33931 | 10.95941 | 34041 ft | 402 kts | 318° |
| 2026-04-26 19:04 | 42.36021 | 10.93430 | 33524 ft | 399 kts | 318° |
| 2026-04-26 19:04 | 42.38034 | 10.90887 | 33017 ft | 396 kts | 315° |
| 2026-04-26 19:05 | 42.41762 | 10.85568 | 32008 ft | 386 kts | 312° |
| 2026-04-26 19:05 | 42.43561 | 10.82892 | 31316 ft | 379 kts | 312° |
| 2026-04-26 19:05 | 42.45310 | 10.80286 | 30519 ft | 376 kts | 313° |
| 2026-04-26 19:06 | 42.47052 | 10.77703 | 29536 ft | 378 kts | 313° |
| 2026-04-26 19:06 | 42.48839 | 10.75071 | 28347 ft | 382 kts | 313° |
| 2026-04-26 19:06 | 42.50648 | 10.72417 | 27092 ft | 388 kts | 313° |
| 2026-04-26 19:06 | 42.52458 | 10.69770 | 26025 ft | 388 kts | 313° |
| 2026-04-26 19:07 | 42.54272 | 10.67121 | 25148 ft | 383 kts | 313° |
| 2026-04-26 19:07 | 42.56070 | 10.64497 | 24272 ft | 378 kts | 313° |
| 2026-04-26 19:07 | 42.57835 | 10.61920 | 23435 ft | 373 kts | 313° |
| 2026-04-26 19:07 | 42.59569 | 10.59387 | 22573 ft | 369 kts | 313° |
| 2026-04-26 19:08 | 42.61309 | 10.56845 | 21751 ft | 364 kts | 313° |
| 2026-04-26 19:08 | 42.63006 | 10.54362 | 20908 ft | 359 kts | 313° |
| 2026-04-26 19:08 | 42.64677 | 10.51913 | 20226 ft | 351 kts | 313° |
| 2026-04-26 19:08 | 42.66331 | 10.49491 | 19531 ft | 350 kts | 314° |
| 2026-04-26 19:09 | 42.67938 | 10.47132 | 19242 ft | 331 kts | 314° |
| 2026-04-26 19:09 | 42.69456 | 10.44902 | 19002 ft | 313 kts | 314° |
| 2026-04-26 19:09 | 42.70897 | 10.42782 | 18664 ft | 300 kts | 314° |
| 2026-04-26 19:09 | 42.72361 | 10.40846 | 18301 ft | 290 kts | 323° |
| 2026-04-26 19:10 | 42.74121 | 10.39531 | 18114 ft | 293 kts | 344° |
| 2026-04-26 19:10 | 42.76158 | 10.39054 | 18136 ft | 309 kts | 354° |
| 2026-04-26 19:10 | 42.78337 | 10.38786 | 18083 ft | 313 kts | 354° |
| 2026-04-26 19:10 | 42.80500 | 10.38529 | 17807 ft | 310 kts | 354° |
| 2026-04-26 19:11 | 42.82625 | 10.38262 | 17423 ft | 307 kts | 354° |
| 2026-04-26 19:11 | 42.84734 | 10.37984 | 17029 ft | 304 kts | 354° |
| 2026-04-26 19:11 | 42.86821 | 10.37702 | 16645 ft | 302 kts | 354° |
| 2026-04-26 19:11 | 42.88899 | 10.37417 | 16260 ft | 299 kts | 354° |
| 2026-04-26 19:12 | 42.90970 | 10.37133 | 15875 ft | 297 kts | 354° |
| 2026-04-26 19:12 | 42.93027 | 10.36850 | 15495 ft | 294 kts | 354° |
| 2026-04-26 19:12 | 42.95029 | 10.36575 | 15126 ft | 292 kts | 354° |
| 2026-04-26 19:12 | 42.97054 | 10.36297 | 14746 ft | 289 kts | 355° |
| 2026-04-26 19:13 | 42.99049 | 10.36023 | 14382 ft | 286 kts | 355° |
| 2026-04-26 19:13 | 43.00986 | 10.35757 | 14031 ft | 284 kts | 355° |